Time;durP1;ratioP1;P1;durP2;ratioP2;P2;SDS_P1;SDS_P2;PMS_P1;PMS_P2;Temp;Humidity;BMP_temperature;BMP_pressure;BME280_temperature;BME280_humidity;BME280_pressure;Samples;Min_cycle;Max_cycle;Signal;HPM_P1;HPM_P2
2022/06/23 00:01:12;;;;;;;6.77;5.67;;;;;;;19.23;100.00;99852.63;4998016;28;20187;-74
2022/06/23 00:03:38;;;;;;;5.73;5.13;;;;;;;19.17;100.00;99862.50;5001508;28;20704;-73
2022/06/23 00:06:08;;;;;;;7.53;5.73;;;;;;;19.13;100.00;99863.63;5001702;28;20203;-75
2022/06/23 00:08:46;;;;;;;7.90;5.53;;;;;;;19.09;100.00;99861.22;5000286;28;20195;-75
2022/06/23 00:11:23;;;;;;;9.10;5.70;;;;;;;19.06;100.00;99853.53;5001261;28;20191;-75
2022/06/23 00:13:50;;;;;;;8.40;5.67;;;;;;;19.01;100.00;99846.72;5002000;28;20692;-75
2022/06/23 00:16:25;;;;;;;7.80;6.00;;;;;;;18.99;100.00;99842.47;5007714;28;20653;-76
2022/06/23 00:18:51;;;;;;;7.07;6.00;;;;;;;18.96;100.00;99845.28;5006042;28;20214;-74
2022/06/23 00:21:27;;;;;;;6.90;6.23;;;;;;;18.93;100.00;99840.97;5006332;28;20663;-74
2022/06/23 00:24:01;;;;;;;7.17;6.47;;;;;;;18.92;100.00;99834.03;5002206;28;20222;-74
2022/06/23 00:26:31;;;;;;;8.00;7.20;;;;;;;18.90;100.00;99820.19;5017758;28;20204;-74
2022/06/23 00:29:18;;;;;;;9.47;7.87;;;;;;;18.88;100.00;99822.88;5022010;28;20183;-74
2022/06/23 00:32:04;;;;;;;8.90;8.00;;;;;;;18.87;100.00;99826.41;5009876;28;20188;-74
2022/06/23 00:34:42;;;;;;;9.23;8.13;;;;;;;18.88;100.00;99819.41;5003161;28;20245;-75
2022/06/23 00:37:10;;;;;;;9.73;8.77;;;;;;;18.88;100.00;99835.16;5004943;28;20696;-74
2022/06/23 00:39:47;;;;;;;9.27;8.37;;;;;;;18.85;100.00;99838.75;5004468;28;20591;-75
2022/06/23 00:42:24;;;;;;;9.60;8.60;;;;;;;18.83;100.00;99847.63;5005399;28;20195;-74
2022/06/23 00:45:01;;;;;;;8.43;7.30;;;;;;;18.79;100.00;99851.31;5017517;28;20195;-74
2022/06/23 00:47:39;;;;;;;8.30;7.50;;;;;;;18.71;100.00;99839.47;5005025;28;20213;-74
2022/06/23 00:50:10;;;;;;;8.40;7.70;;;;;;;18.65;100.00;99846.78;5006222;28;20258;-74
2022/06/23 00:53:06;;;;;;;9.37;7.67;;;;;;;18.59;100.00;99850.56;5006072;28;20210;-75
2022/06/23 00:55:34;;;;;;;8.33;7.13;;;;;;;18.52;100.00;99846.53;5014542;28;20723;-74
2022/06/23 00:58:18;;;;;;;7.70;6.90;;;;;;;18.46;100.00;99858.16;5022085;28;20204;-74
2022/06/23 01:00:44;;;;;;;8.57;7.67;;;;;;;18.38;100.00;99858.53;5000351;28;20269;-75
2022/06/23 01:03:16;;;;;;;8.20;7.23;;;;;;;18.34;100.00;99858.75;5004084;28;20214;-74
2022/06/23 01:05:48;;;;;;;9.17;7.10;;;;;;;18.28;100.00;99855.50;5004706;28;20192;-74
2022/06/23 01:08:43;;;;;;;7.37;6.67;;;;;;;18.25;100.00;99860.06;5005955;28;20285;-75
2022/06/23 01:11:38;;;;;;;7.80;6.70;;;;;;;18.21;100.00;99858.50;5003023;28;20571;-75
2022/06/23 01:14:28;;;;;;;8.27;6.57;;;;;;;18.20;100.00;99856.78;5006205;28;20230;-75
2022/06/23 01:17:11;;;;;;;7.60;6.90;;;;;;;18.16;100.00;99863.09;5003797;28;20180;-74
2022/06/23 01:19:53;;;;;;;8.57;7.30;;;;;;;18.15;100.00;99859.63;5017388;28;20196;-74
2022/06/23 01:22:32;;;;;;;7.90;7.10;;;;;;;18.11;100.00;99858.06;5010291;28;20230;-75
2022/06/23 01:25:22;;;;;;;10.00;8.23;;;;;;;18.09;100.00;99857.28;5001464;28;20597;-74
2022/06/23 01:28:00;;;;;;;10.80;7.83;;;;;;;18.07;100.00;99870.47;5001181;28;20195;-75
2022/06/23 01:30:32;;;;;;;10.00;8.97;;;;;;;18.04;100.00;99868.00;5002549;28;20219;-75
2022/06/23 01:33:20;;;;;;;9.10;8.20;;;;;;;18.02;100.00;99872.44;5003715;28;20196;-74
2022/06/23 01:35:57;;;;;;;9.47;7.97;;;;;;;18.01;100.00;99869.91;4999072;28;20201;-74
2022/06/23 01:38:50;;;;;;;8.10;7.20;;;;;;;17.98;100.00;99865.69;5000936;28;21011;-75
2022/06/23 01:41:41;;;;;;;8.87;7.97;;;;;;;17.95;100.00;99871.03;5005094;28;20189;-75
2022/06/23 01:44:36;;;;;;;7.40;6.70;;;;;;;17.91;100.00;99862.47;5005387;28;20319;-74
2022/06/23 01:47:10;;;;;;;8.10;6.83;;;;;;;17.88;100.00;99872.22;4999709;28;20184;-74
2022/06/23 01:49:41;;;;;;;8.63;7.30;;;;;;;17.86;100.00;99876.66;5006510;28;20196;-74
2022/06/23 01:52:15;;;;;;;7.30;6.63;;;;;;;17.83;100.00;99872.44;5004806;28;20199;-74
2022/06/23 01:54:41;;;;;;;7.60;6.83;;;;;;;17.80;100.00;99881.28;5005504;28;20283;-74
2022/06/23 01:57:31;;;;;;;8.53;6.87;;;;;;;17.76;100.00;99887.56;5003370;28;20282;-74
2022/06/23 02:00:00;;;;;;;7.43;6.70;;;;;;;17.74;100.00;99878.09;5014351;28;20202;-75
2022/06/23 02:02:37;;;;;;;8.70;7.03;;;;;;;17.72;100.00;99882.53;5004138;28;20666;-74
2022/06/23 02:05:02;;;;;;;11.37;7.97;;;;;;;17.70;100.00;99881.75;5015103;28;20813;-75
2022/06/23 02:07:43;;;;;;;8.30;7.27;;;;;;;17.68;100.00;99889.69;5003110;28;20278;-75
2022/06/23 02:10:20;;;;;;;7.30;6.60;;;;;;;17.70;100.00;99879.97;5006455;28;20191;-74
2022/06/23 02:13:04;;;;;;;8.07;7.10;;;;;;;17.69;100.00;99891.38;5000185;28;20213;-74
2022/06/23 02:15:35;;;;;;;7.53;6.83;;;;;;;17.67;100.00;99878.34;5004242;28;20272;-75
2022/06/23 02:18:17;;;;;;;7.80;6.60;;;;;;;17.67;100.00;99890.59;5004790;28;20575;-74
2022/06/23 02:21:23;;;;;;;7.57;6.73;;;;;;;17.65;100.00;99889.81;5003494;28;20195;-74
2022/06/23 02:24:21;;;;;;;6.87;6.27;;;;;;;17.63;100.00;99892.47;4997324;28;20685;-75
2022/06/23 02:27:13;;;;;;;7.67;6.73;;;;;;;17.64;100.00;99902.03;5000532;28;20178;-73
2022/06/23 02:29:45;;;;;;;7.37;6.67;;;;;;;17.65;100.00;99905.53;5001609;28;20252;-75
2022/06/23 02:32:32;;;;;;;7.10;6.43;;;;;;;17.67;100.00;99911.53;4995154;28;20221;-75
2022/06/23 02:35:20;;;;;;;7.83;7.13;;;;;;;17.66;100.00;99912.47;5002115;28;20180;-75
2022/06/23 02:38:08;;;;;;;7.60;6.90;;;;;;;17.66;100.00;99910.66;5003900;28;20201;-75
2022/06/23 02:40:44;;;;;;;7.33;6.63;;;;;;;17.66;100.00;99912.47;5000757;28;20191;-74
2022/06/23 02:43:26;;;;;;;7.53;6.83;;;;;;;17.63;100.00;99908.19;4998252;28;20299;-73
2022/06/23 02:45:57;;;;;;;7.43;6.73;;;;;;;17.61;100.00;99911.81;5001412;28;20203;-74
2022/06/23 02:48:44;;;;;;;7.10;6.50;;;;;;;17.56;100.00;99906.78;5017621;28;20193;-74
2022/06/23 02:51:28;;;;;;;7.07;6.47;;;;;;;17.53;100.00;99904.28;5004922;28;20213;-74
2022/06/23 02:54:45;;;;;;;7.30;6.70;;;;;;;17.52;100.00;99905.22;5005752;28;20237;-74
2022/06/23 02:57:10;;;;;;;7.70;6.90;;;;;;;17.51;100.00;99904.38;4995291;28;20209;-74
2022/06/23 02:59:50;;;;;;;7.20;6.50;;;;;;;17.50;100.00;99901.81;5003658;28;20183;-73
2022/06/23 03:02:28;;;;;;;8.77;6.60;;;;;;;17.45;100.00;99895.94;5035707;28;20194;-75
2022/06/23 03:05:01;;;;;;;7.23;6.37;;;;;;;17.41;100.00;99891.75;5017347;28;20216;-75
2022/06/23 03:07:31;;;;;;;7.10;6.50;;;;;;;17.40;100.00;99892.66;4999195;28;20197;-75
2022/06/23 03:10:14;;;;;;;7.73;7.03;;;;;;;17.38;100.00;99890.13;5027016;28;20270;-75
2022/06/23 03:13:06;;;;;;;8.50;7.20;;;;;;;17.32;100.00;99893.84;5017587;28;20222;-75
2022/06/23 03:15:39;;;;;;;7.13;6.43;;;;;;;17.29;100.00;99896.59;4993934;28;20281;-74
2022/06/23 03:18:33;;;;;;;6.50;6.00;;;;;;;17.29;100.00;99904.47;5016780;28;20268;-75
2022/06/23 03:21:03;;;;;;;6.90;6.30;;;;;;;17.29;100.00;99898.34;5000706;28;20198;-75
2022/06/23 03:23:41;;;;;;;7.90;6.97;;;;;;;17.29;100.00;99899.22;5002877;28;20673;-76
2022/06/23 03:26:22;;;;;;;8.10;6.67;;;;;;;17.27;100.00;99911.50;5000074;28;20226;-76
2022/06/23 03:29:07;;;;;;;7.20;6.47;;;;;;;17.26;100.00;99914.19;5002434;28;20199;-76
2022/06/23 03:32:01;;;;;;;7.43;6.07;;;;;;;17.27;100.00;99908.91;5014412;28;20238;-75
2022/06/23 03:34:36;;;;;;;6.43;5.83;;;;;;;17.30;100.00;99918.38;5019080;28;20244;-75
2022/06/23 03:37:05;;;;;;;8.43;6.23;;;;;;;17.30;100.00;99915.75;5002111;28;20209;-76
2022/06/23 03:42:45;;;;;;;6.83;5.53;;;;;;;17.37;100.00;99928.50;5002543;28;20875;-76
2022/06/23 03:45:26;;;;;;;6.13;5.10;;;;;;;17.41;100.00;99929.22;4995694;28;20188;-76
2022/06/23 03:48:13;;;;;;;5.50;5.00;;;;;;;17.47;100.00;99925.50;5005394;28;20274;-75
2022/06/23 03:51:02;;;;;;;5.73;4.80;;;;;;;17.53;100.00;99930.44;5016639;28;20182;-77
2022/06/23 03:53:32;;;;;;;6.17;4.87;;;;;;;17.61;100.00;99935.34;5009773;28;20223;-75
2022/06/23 03:56:03;;;;;;;4.83;4.33;;;;;;;17.84;100.00;99936.94;5016151;28;20180;-76
2022/06/23 03:58:37;;;;;;;5.23;4.73;;;;;;;18.18;100.00;99929.34;4997463;28;20286;-75
2022/06/23 04:01:15;;;;;;;5.10;4.30;;;;;;;18.34;100.00;99934.72;5001617;28;20591;-75
2022/06/23 04:03:50;;;;;;;4.40;4.00;;;;;;;18.49;100.00;99936.63;5018947;28;20200;-74
2022/06/23 04:06:21;;;;;;;4.57;4.17;;;;;;;18.65;100.00;99935.91;5004273;28;20176;-75
2022/06/23 04:08:55;;;;;;;4.40;4.00;;;;;;;18.72;100.00;99934.66;5013765;28;20238;-74
2022/06/23 04:11:43;;;;;;;4.53;4.10;;;;;;;18.71;100.00;99941.69;4996893;28;20211;-74
2022/06/23 04:14:15;;;;;;;4.57;3.70;;;;;;;18.71;100.00;99940.81;5002255;28;20210;-75
2022/06/23 04:16:41;;;;;;;4.13;3.70;;;;;;;18.77;100.00;99943.16;5002165;28;20199;-75
2022/06/23 04:19:14;;;;;;;4.67;4.13;;;;;;;18.85;100.00;99938.38;5016494;28;20193;-75
2022/06/23 04:21:45;;;;;;;4.10;3.33;;;;;;;19.09;100.00;99934.63;5001124;28;20268;-75
2022/06/23 04:24:20;;;;;;;4.93;3.97;;;;;;;19.56;100.00;99939.22;5017906;28;20227;-76
2022/06/23 04:26:51;;;;;;;4.87;4.00;;;;;;;19.75;100.00;99941.72;5003268;28;20553;-75
2022/06/23 04:29:21;;;;;;;4.43;3.83;;;;;;;19.82;100.00;99938.81;5021920;28;20226;-74
2022/06/23 04:32:01;;;;;;;4.13;3.53;;;;;;;19.85;100.00;99939.47;5000752;28;20269;-75
2022/06/23 04:34:31;;;;;;;3.93;3.63;;;;;;;19.96;100.00;99946.81;5004403;28;20691;-74
2022/06/23 04:36:56;;;;;;;3.47;3.17;;;;;;;20.04;100.00;99943.78;5004723;28;20176;-75
2022/06/23 04:39:45;;;;;;;4.70;3.77;;;;;;;20.30;100.00;99941.50;5002560;28;20197;-76
2022/06/23 04:42:23;;;;;;;3.87;3.13;;;;;;;21.22;100.00;99942.47;5001417;28;20617;-75
2022/06/23 04:44:57;;;;;;;5.43;4.17;;;;;;;22.30;100.00;99935.06;5023217;28;20214;-76
2022/06/23 04:47:27;;;;;;;3.07;2.73;;;;;;;23.36;100.00;99942.28;4999140;28;20235;-76
2022/06/23 04:50:33;;;;;;;5.17;3.20;;;;;;;24.39;100.00;99942.16;5004155;28;20552;-76
2022/06/23 04:53:00;;;;;;;5.87;3.10;;;;;;;25.19;99.58;99945.97;4996455;28;20247;-76
2022/06/23 04:55:30;;;;;;;5.67;3.50;;;;;;;25.88;96.96;99933.69;5002188;28;20188;-76
2022/06/23 04:57:59;;;;;;;4.77;3.43;;;;;;;26.54;94.39;99929.38;5001896;28;20250;-74
2022/06/23 05:00:28;;;;;;;4.53;2.77;;;;;;;27.02;91.55;99931.59;4998498;28;20191;-76
2022/06/23 05:03:04;;;;;;;5.47;3.53;;;;;;;27.44;88.98;99933.38;5001760;28;20311;-76
2022/06/23 05:05:34;;;;;;;5.60;3.27;;;;;;;27.99;87.87;99929.56;5004956;28;20191;-76
2022/06/23 05:08:15;;;;;;;5.33;2.83;;;;;;;28.49;86.31;99926.06;4999963;28;20193;-76
2022/06/23 05:10:52;;;;;;;9.60;3.33;;;;;;;28.86;83.99;99936.03;5006492;28;20219;-76
2022/06/23 05:13:21;;;;;;;7.13;3.53;;;;;;;29.14;82.13;99933.47;5002729;28;20262;-75
2022/06/23 05:15:56;;;;;;;4.50;3.07;;;;;;;29.42;81.39;99941.56;5004179;28;20283;-76
2022/06/23 05:18:27;;;;;;;3.90;2.80;;;;;;;29.97;80.46;99939.97;5003860;28;20774;-76
2022/06/23 05:21:00;;;;;;;6.23;3.00;;;;;;;30.42;79.28;99939.13;5009290;28;20536;-76
2022/06/23 05:23:46;;;;;;;3.37;2.53;;;;;;;31.16;78.21;99941.63;5006886;28;20235;-76
2022/06/23 05:26:26;;;;;;;6.53;3.67;;;;;;;31.53;76.46;99930.81;5012318;28;20188;-75
2022/06/23 05:28:57;;;;;;;4.47;2.90;;;;;;;31.96;75.75;99941.59;5008811;28;20318;-76
2022/06/23 05:31:29;;;;;;;5.20;3.70;;;;;;;32.36;74.33;99942.72;4997073;28;20255;-76
2022/06/23 05:33:58;;;;;;;4.70;3.35;;;;;;;32.65;73.75;99938.72;5005207;28;20231;-76
2022/06/23 05:36:32;;;;;;;7.97;3.60;;;;;;;32.87;72.64;99942.59;5006925;28;20181;-76
2022/06/23 05:39:18;;;;;;;5.55;3.47;;;;;;;33.20;71.83;99941.75;5019768;28;20185;-76
2022/06/23 05:41:48;;;;;;;4.45;2.25;;;;;;;33.74;71.68;99939.28;5006571;28;20208;-77
2022/06/23 05:44:22;;;;;;;4.15;3.03;;;;;;;34.12;69.88;99937.75;5006370;28;20212;-77
2022/06/23 05:46:48;;;;;;;5.13;2.80;;;;;;;34.34;69.22;99946.84;5005967;28;20184;-74
2022/06/23 05:49:18;;;;;;;4.78;2.90;;;;;;;34.63;68.88;99948.06;5006040;28;20192;-76
2022/06/23 05:52:09;;;;;;;2.80;2.35;;;;;;;34.83;68.75;99944.84;5001846;28;20184;-77
2022/06/23 05:55:02;;;;;;;6.15;3.10;;;;;;;35.19;67.87;99942.34;5001607;28;20220;-75
2022/06/23 05:57:34;;;;;;;6.30;3.30;;;;;;;35.45;67.16;99942.97;5006979;28;20188;-74
2022/06/23 06:00:15;;;;;;;5.45;3.25;;;;;;;35.71;66.78;99943.31;5003005;28;20223;-76
2022/06/23 06:02:56;;;;;;;6.05;3.28;;;;;;;35.99;65.83;99939.97;5000748;28;20223;-76
2022/06/23 06:05:25;;;;;;;5.05;3.03;;;;;;;36.01;65.17;99937.06;5012546;28;20211;-76
2022/06/23 06:07:50;;;;;;;5.00;2.80;;;;;;;36.31;64.77;99935.13;5002022;28;20194;-76
2022/06/23 06:10:20;;;;;;;5.40;2.83;;;;;;;36.45;64.00;99929.91;5001265;28;20606;-76
2022/06/23 06:12:48;;;;;;;4.93;2.53;;;;;;;36.52;63.67;99922.72;4996891;28;20212;-76
2022/06/23 06:15:17;;;;;;;4.45;2.60;;;;;;;36.61;63.70;99918.84;5004580;28;20196;-76
2022/06/23 06:17:44;;;;;;;3.67;2.33;;;;;;;36.90;63.85;99919.72;5008305;28;20255;-76
2022/06/23 06:20:11;;;;;;;4.88;2.80;;;;;;;37.12;63.12;99932.34;5005296;28;20210;-76
2022/06/23 06:23:01;;;;;;;5.10;3.03;;;;;;;36.85;62.40;99930.25;5029618;28;20213;-76
2022/06/23 06:25:34;;;;;;;4.65;2.80;;;;;;;36.84;62.67;99927.72;5000671;28;20272;-76
2022/06/23 06:28:12;;;;;;;4.82;2.95;;;;;;;36.97;62.23;99932.44;5001483;28;20278;-76
2022/06/23 06:30:40;;;;;;;5.15;2.65;;;;;;;36.67;61.80;99917.25;4996816;28;20184;-76
2022/06/23 06:33:19;;;;;;;4.60;3.08;;;;;;;36.46;61.15;99920.78;5019256;28;20196;-76
2022/06/23 06:35:53;;;;;;;3.83;2.70;;;;;;;36.26;61.77;99928.63;5004500;28;20245;-76
2022/06/23 06:38:22;;;;;;;4.18;3.03;;;;;;;36.13;61.93;99923.97;5002377;28;20186;-76
2022/06/23 06:40:54;;;;;;;3.95;2.70;;;;;;;36.03;62.57;99923.41;5003220;28;20184;-76
2022/06/23 06:43:24;;;;;;;4.32;2.70;;;;;;;36.14;62.18;99925.63;4997779;28;20224;-75
2022/06/23 06:45:50;;;;;;;7.72;3.35;;;;;;;35.89;62.13;99925.09;5003051;28;20680;-76
2022/06/23 06:48:27;;;;;;;5.75;2.70;;;;;;;35.80;62.61;99935.16;5005853;28;20270;-76
2022/06/23 06:50:59;;;;;;;5.97;2.80;;;;;;;35.92;62.57;99933.63;5004492;28;20184;-75
2022/06/23 06:53:34;;;;;;;3.42;2.25;;;;;;;36.25;62.30;99932.34;4996001;28;20212;-75
2022/06/23 06:56:11;;;;;;;4.70;2.13;;;;;;;36.55;61.97;99930.41;5004817;28;20189;-75
2022/06/23 06:58:55;;;;;;;4.20;2.63;;;;;;;36.82;62.28;99929.81;5004681;28;20204;-75
2022/06/23 07:01:23;;;;;;;3.85;2.30;;;;;;;36.98;62.16;99932.25;4996878;28;20207;-75
2022/06/23 07:03:51;;;;;;;3.67;2.20;;;;;;;37.02;62.05;99930.00;4999304;28;20568;-76
2022/06/23 07:06:17;;;;;;;4.10;2.38;;;;;;;37.18;61.80;99931.53;5005444;28;20176;-75
2022/06/23 07:08:55;;;;;;;4.38;2.40;;;;;;;37.11;61.38;99933.38;5005659;28;20806;-74
2022/06/23 07:11:29;;;;;;;6.10;2.92;;;;;;;36.90;61.26;99927.81;5004488;28;20651;-74
2022/06/23 07:14:05;;;;;;;6.90;3.28;;;;;;;36.53;61.72;99937.84;5006213;28;20574;-75
2022/06/23 07:17:01;;;;;;;6.72;3.10;;;;;;;36.15;61.49;99936.19;5005448;28;20188;-75
2022/06/23 07:19:44;;;;;;;4.90;2.78;;;;;;;35.95;62.20;99935.13;5018657;28;20212;-75
2022/06/23 07:22:13;;;;;;;6.50;2.90;;;;;;;35.62;61.78;99924.78;5020556;28;20200;-75
2022/06/23 07:24:58;;;;;;;6.68;2.95;;;;;;;35.32;62.45;99920.19;5003956;28;20232;-76
2022/06/23 07:27:29;;;;;;;5.45;2.63;;;;;;;35.18;63.12;99926.41;5007390;28;20194;-75
2022/06/23 07:30:11;;;;;;;5.57;2.70;;;;;;;35.10;63.09;99919.25;5026508;28;20238;-75
2022/06/23 07:32:49;;;;;;;3.85;2.65;;;;;;;34.80;63.60;99921.88;5008354;28;20270;-75
2022/06/23 07:35:33;;;;;;;5.78;2.65;;;;;;;34.93;63.67;99921.28;5008435;28;20179;-75
2022/06/23 07:38:01;;;;;;;6.22;2.63;;;;;;;34.96;63.49;99923.59;5008671;28;20200;-75
2022/06/23 07:40:31;;;;;;;6.20;3.20;;;;;;;34.70;63.20;99913.22;5005509;28;20181;-75
2022/06/23 07:43:16;;;;;;;7.57;2.78;;;;;;;34.55;63.27;99911.34;5017475;28;20223;-76
2022/06/23 07:46:01;;;;;;;4.43;2.88;;;;;;;34.19;62.65;99925.31;5001851;28;20873;-75
2022/06/23 07:48:30;;;;;;;8.50;3.20;;;;;;;33.46;64.00;99930.00;5004382;28;20741;-76
2022/06/23 07:50:57;;;;;;;5.10;2.45;;;;;;;33.42;64.16;99927.63;5002795;28;20185;-75
2022/06/23 07:53:27;;;;;;;3.88;2.65;;;;;;;33.10;63.86;99918.63;4998802;28;20212;-76
2022/06/23 07:55:53;;;;;;;5.45;2.50;;;;;;;32.62;65.74;99915.81;4995243;28;20192;-76
2022/06/23 07:58:25;;;;;;;5.47;2.97;;;;;;;32.49;66.40;99900.22;4996613;28;20211;-76
2022/06/23 08:00:59;;;;;;;7.38;3.10;;;;;;;32.26;66.89;99904.56;4996913;28;20327;-75
2022/06/23 08:03:33;;;;;;;4.57;2.65;;;;;;;31.88;67.59;99903.09;5012755;28;20737;-75
2022/06/23 08:06:04;;;;;;;6.15;3.10;;;;;;;31.78;68.14;99902.38;5010866;28;20187;-75
2022/06/23 08:08:34;;;;;;;4.85;2.38;;;;;;;31.90;68.42;99905.63;4998800;28;20561;-73
2022/06/23 08:14:00;;;;;;;6.65;2.42;;;;;;;31.59;67.29;99904.28;4995167;28;20295;-76
2022/06/23 08:19:51;;;;;;;6.28;2.40;;;;;;;31.64;67.41;99901.13;5004319;28;20274;-76
2022/06/23 08:22:27;;;;;;;5.57;2.45;;;;;;;31.61;67.26;99890.75;5003943;28;20179;-75
2022/06/23 08:24:57;;;;;;;6.10;2.67;;;;;;;31.39;68.10;99882.28;4999025;28;20212;-76
2022/06/23 08:27:28;;;;;;;7.20;2.83;;;;;;;31.26;68.75;99888.06;4995422;28;20234;-76
2022/06/23 08:30:00;;;;;;;6.07;2.67;;;;;;;30.89;69.37;99880.28;5001103;28;20180;-76
2022/06/23 08:32:29;;;;;;;3.77;2.37;;;;;;;30.83;69.55;99871.06;5009079;28;20188;-77
2022/06/23 08:34:59;;;;;;;5.57;2.80;;;;;;;30.76;69.86;99868.19;5017257;28;20655;-75
2022/06/23 08:37:24;;;;;;;28.10;5.47;;;;;;;30.56;70.55;99862.19;5024524;28;20180;-76
2022/06/23 08:40:00;;;;;;;8.80;2.80;;;;;;;30.37;70.65;99856.00;5013094;28;20238;-75
2022/06/23 08:42:45;;;;;;;4.57;2.50;;;;;;;30.19;70.84;99853.34;5003434;28;20180;-76
2022/06/23 08:45:38;;;;;;;5.50;2.67;;;;;;;30.13;71.93;99856.59;5006885;28;20287;-75
2022/06/23 08:48:22;;;;;;;6.37;2.87;;;;;;;29.90;72.53;99857.00;5018783;28;20287;-75
2022/06/23 08:51:07;;;;;;;4.80;2.80;;;;;;;29.75;73.10;99862.00;5006558;28;20672;-75
2022/06/23 08:53:46;;;;;;;3.67;2.70;;;;;;;29.57;74.06;99853.97;5007345;28;20219;-75
2022/06/23 08:56:21;;;;;;;5.80;2.60;;;;;;;29.38;74.57;99848.72;5007775;28;20279;-76
2022/06/23 08:59:22;;;;;;;5.50;2.73;;;;;;;29.32;75.04;99845.63;5005719;28;20731;-76
2022/06/23 09:01:57;;;;;;;4.83;3.00;;;;;;;29.25;74.80;99855.19;5003280;28;20184;-76
2022/06/23 09:04:56;;;;;;;5.37;2.97;;;;;;;28.97;75.38;99852.47;5004415;28;20928;-76
2022/06/23 09:07:53;;;;;;;4.83;2.90;;;;;;;28.72;75.95;99852.09;5004711;28;20207;-76
2022/06/23 09:10:23;;;;;;;6.00;3.00;;;;;;;28.55;76.32;99848.31;5002765;28;20225;-76
2022/06/23 09:13:17;;;;;;;7.27;3.20;;;;;;;28.53;76.59;99842.28;5001912;28;20695;-76
2022/06/23 09:16:03;;;;;;;5.77;2.73;;;;;;;28.49;76.75;99838.25;5000532;28;20279;-76
2022/06/23 09:18:44;;;;;;;3.33;2.50;;;;;;;28.57;76.78;99840.19;5014925;28;20278;-75
2022/06/23 09:21:21;;;;;;;6.13;2.73;;;;;;;28.63;76.32;99839.59;5003626;28;20283;-75
2022/06/23 09:23:46;;;;;;;3.60;2.50;;;;;;;28.68;76.66;99834.72;5001308;28;20258;-76
2022/06/23 09:26:30;;;;;;;5.13;2.90;;;;;;;28.81;76.08;99836.25;5022068;28;20593;-76
2022/06/23 09:29:01;;;;;;;4.47;2.90;;;;;;;28.81;75.95;99826.47;5006793;28;20672;-76
2022/06/23 09:31:27;;;;;;;6.10;3.00;;;;;;;28.78;75.36;99831.22;5003803;28;20358;-76
2022/06/23 09:34:20;;;;;;;6.40;2.80;;;;;;;28.74;75.10;99828.00;5017872;28;20948;-75
2022/06/23 09:36:48;;;;;;;6.13;2.90;;;;;;;28.68;74.84;99816.06;5003890;28;20191;-75
2022/06/23 09:39:25;;;;;;;6.30;2.63;;;;;;;28.76;75.28;99812.72;5003265;28;20180;-75
2022/06/23 09:42:15;;;;;;;7.10;2.73;;;;;;;28.86;74.59;99812.69;5007058;28;20187;-75
2022/06/23 09:44:56;;;;;;;6.77;3.13;;;;;;;28.90;75.17;99809.59;5005775;28;20607;-75
2022/06/23 09:47:24;;;;;;;6.17;2.87;;;;;;;29.00;74.83;99809.56;4999857;28;21001;-76
2022/06/23 09:49:49;;;;;;;5.07;3.00;;;;;;;29.06;74.96;99808.16;5003136;28;20220;-75
2022/06/23 09:52:27;;;;;;;7.57;3.50;;;;;;;28.95;74.65;99797.69;5017179;28;20180;-74
2022/06/23 09:55:42;;;;;;;6.67;3.40;;;;;;;28.80;76.04;99806.13;4999836;28;20275;-77
2022/06/23 09:58:22;;;;;;;11.43;4.20;;;;;;;28.96;76.95;99794.03;4992680;28;20200;-76
2022/06/23 10:01:22;;;;;;;7.30;3.77;;;;;;;29.10;77.15;99779.38;4998460;28;20185;-75
2022/06/23 10:03:47;;;;;;;7.00;4.33;;;;;;;29.15;77.11;99791.28;4997062;28;20244;-76
2022/06/23 10:06:25;;;;;;;8.30;4.07;;;;;;;28.97;77.93;99793.03;5006073;28;20216;-76
2022/06/23 10:09:25;;;;;;;5.43;3.60;;;;;;;28.78;78.23;99791.25;4998264;28;20771;-75
2022/06/23 10:12:26;;;;;;;8.13;4.47;;;;;;;28.86;79.19;99788.72;5013780;28;20183;-76
2022/06/23 10:15:06;;;;;;;6.37;4.20;;;;;;;28.94;79.00;99782.69;5017727;28;20188;-76
2022/06/23 10:18:03;;;;;;;5.23;4.00;;;;;;;29.19;78.78;99782.00;5015047;28;20265;-77
2022/06/23 10:20:51;;;;;;;4.70;3.73;;;;;;;29.23;78.25;99771.06;5002388;28;20559;-76
2022/06/23 10:23:16;;;;;;;6.33;4.40;;;;;;;29.26;78.47;99770.78;5003754;28;20240;-76
2022/06/23 10:26:08;;;;;;;6.00;3.90;;;;;;;29.31;78.77;99771.16;5008395;28;20224;-76
2022/06/23 10:28:55;;;;;;;6.97;3.53;;;;;;;29.06;78.66;99768.19;5002536;28;20721;-75
2022/06/23 10:31:57;;;;;;;9.93;4.10;;;;;;;29.27;78.11;99772.47;5004829;28;20183;-76
2022/06/23 10:34:41;;;;;;;4.93;3.90;;;;;;;29.40;78.10;99762.31;5000777;28;20223;-76
2022/06/23 10:37:29;;;;;;;6.13;3.60;;;;;;;29.37;77.58;99773.25;5017485;28;20192;-76
2022/06/23 10:40:15;;;;;;;9.57;4.00;;;;;;;29.51;77.94;99766.56;5006983;28;20222;-76
2022/06/23 10:43:14;;;;;;;7.33;3.90;;;;;;;29.59;77.79;99765.81;4998653;28;20280;-76
2022/06/23 10:46:07;;;;;;;7.83;3.67;;;;;;;29.38;77.60;99752.78;5001645;28;20196;-76
2022/06/23 10:49:00;;;;;;;4.97;3.67;;;;;;;29.61;77.14;99743.38;5033966;28;20196;-76
2022/06/23 10:51:41;;;;;;;6.13;3.87;;;;;;;29.74;76.02;99744.84;4996660;28;20184;-76
2022/06/23 10:54:25;;;;;;;5.20;3.47;;;;;;;29.84;76.94;99742.91;5015197;28;20220;-76
2022/06/23 10:56:53;;;;;;;6.93;3.93;;;;;;;29.99;76.02;99743.25;5006984;28;20234;-77
2022/06/23 10:59:39;;;;;;;6.17;3.40;;;;;;;29.87;75.88;99741.78;5005841;28;20694;-76
2022/06/23 11:02:24;;;;;;;7.07;4.10;;;;;;;29.80;75.11;99744.19;5001901;28;20224;-76
2022/06/23 11:05:21;;;;;;;8.70;3.67;;;;;;;29.88;74.45;99743.44;5000147;28;20280;-76
2022/06/23 11:08:12;;;;;;;6.80;4.03;;;;;;;29.95;74.51;99729.38;5003508;28;20540;-75
2022/06/23 11:10:59;;;;;;;3.57;2.90;;;;;;;30.03;74.61;99725.13;4997318;28;20238;-76
2022/06/23 11:13:27;;;;;;;8.33;3.60;;;;;;;30.11;74.50;99719.81;5003101;28;20291;-76
2022/06/23 11:16:13;;;;;;;6.73;3.50;;;;;;;30.23;74.12;99723.94;5004913;28;20243;-76
2022/06/23 11:18:51;;;;;;;5.07;2.90;;;;;;;30.29;72.98;99717.16;5000324;28;20196;-76
2022/06/23 11:21:59;;;;;;;5.90;3.00;;;;;;;30.49;73.00;99690.22;5000999;28;20191;-76
2022/06/23 11:24:38;;;;;;;9.80;4.33;;;;;;;30.44;71.86;99704.03;4999842;28;20311;-76
2022/06/23 11:27:28;;;;;;;7.43;3.53;;;;;;;30.30;72.10;99699.28;5021463;28;20184;-78
2022/06/23 11:30:18;;;;;;;8.83;3.50;;;;;;;30.44;72.44;99690.69;5004963;28;20188;-77
2022/06/23 11:33:07;;;;;;;7.13;3.13;;;;;;;30.33;72.40;99693.63;5003459;28;20204;-77
2022/06/23 11:36:04;;;;;;;6.80;3.13;;;;;;;30.36;72.52;99680.81;5002937;28;20219;-77
2022/06/23 11:38:49;;;;;;;7.03;3.00;;;;;;;30.27;72.53;99687.09;4993809;28;20904;-76
2022/06/23 11:41:30;;;;;;;9.20;3.80;;;;;;;30.21;72.90;99679.72;5019048;28;20176;-76
2022/06/23 11:44:18;;;;;;;5.37;2.97;;;;;;;30.22;72.06;99671.56;5003529;28;20208;-76
2022/06/23 11:47:25;;;;;;;6.07;3.50;;;;;;;30.41;72.04;99678.50;5000301;28;20188;-75
2022/06/23 11:50:06;;;;;;;8.50;3.70;;;;;;;30.54;71.86;99664.78;5018556;28;20726;-75
2022/06/23 11:52:56;;;;;;;4.73;3.33;;;;;;;30.68;71.60;99663.31;4996470;28;20678;-74
2022/06/23 11:55:30;;;;;;;9.23;3.20;;;;;;;30.83;71.16;99652.03;5001390;28;20326;-75
2022/06/23 11:58:08;;;;;;;7.20;3.37;;;;;;;30.76;71.04;99659.03;5002365;28;20237;-74
2022/06/23 12:00:55;;;;;;;6.50;3.67;;;;;;;30.60;71.15;99657.97;5010212;28;20196;-74
2022/06/23 12:03:29;;;;;;;6.33;3.40;;;;;;;30.65;71.31;99652.13;4996129;28;20274;-75
2022/06/23 12:06:02;;;;;;;6.53;3.70;;;;;;;30.61;71.09;99642.75;4997925;28;20807;-74
2022/06/23 12:08:46;;;;;;;6.63;3.55;;;;;;;30.30;71.83;99648.56;4995449;28;20193;-76
2022/06/23 12:11:11;;;;;;;6.97;3.57;;;;;;;30.42;71.78;99648.16;5013839;28;20196;-75
2022/06/23 12:13:37;;;;;;;4.83;3.00;;;;;;;30.65;72.04;99647.63;5019383;28;20674;-74
2022/06/23 12:16:04;;;;;;;7.73;3.53;;;;;;;30.73;71.74;99646.00;4999572;28;20594;-74
2022/06/23 12:18:36;;;;;;;8.80;3.83;;;;;;;30.91;71.70;99640.53;4996986;28;20196;-76
2022/06/23 12:21:26;;;;;;;10.13;3.50;;;;;;;30.76;71.82;99637.66;4991196;28;20196;-75
2022/06/23 12:24:06;;;;;;;5.87;3.23;;;;;;;30.84;71.13;99627.84;5016139;28;20211;-75
2022/06/23 12:26:39;;;;;;;7.00;3.30;;;;;;;30.94;71.09;99625.00;5001870;28;20621;-75
2022/06/23 12:29:19;;;;;;;9.50;3.87;;;;;;;31.09;70.36;99627.91;5005576;28;20291;-75
2022/06/23 12:31:54;;;;;;;9.77;3.70;;;;;;;31.04;70.52;99626.72;4999122;28;20216;-75